sensor_id;sensor_type;location;lat;lon;timestamp;temperature;humidity
13742;DHT22;8461;52.356;10.704;2023-01-30T00:00:54;2.10;99.90
13742;DHT22;8461;52.356;10.704;2023-01-30T00:03:20;2.10;99.90
13742;DHT22;8461;52.356;10.704;2023-01-30T00:05:46;2.10;99.90
13742;DHT22;8461;52.356;10.704;2023-01-30T00:08:12;2.10;99.90
13742;DHT22;8461;52.356;10.704;2023-01-30T00:10:37;2.10;99.90
13742;DHT22;8461;52.356;10.704;2023-01-30T00:13:03;2.00;99.90
13742;DHT22;8461;52.356;10.704;2023-01-30T00:15:28;2.00;99.90
13742;DHT22;8461;52.356;10.704;2023-01-30T00:17:54;2.00;99.90
13742;DHT22;8461;52.356;10.704;2023-01-30T00:20:19;2.00;99.90
13742;DHT22;8461;52.356;10.704;2023-01-30T00:22:45;2.00;99.90
13742;DHT22;8461;52.356;10.704;2023-01-30T00:25:10;1.90;99.90
13742;DHT22;8461;52.356;10.704;2023-01-30T00:27:36;1.90;99.90
13742;DHT22;8461;52.356;10.704;2023-01-30T00:30:02;1.90;99.90
13742;DHT22;8461;52.356;10.704;2023-01-30T00:32:30;1.80;99.90
13742;DHT22;8461;52.356;10.704;2023-01-30T00:34:55;1.80;99.90
13742;DHT22;8461;52.356;10.704;2023-01-30T00:37:21;1.90;99.90
13742;DHT22;8461;52.356;10.704;2023-01-30T00:39:47;1.90;99.90
13742;DHT22;8461;52.356;10.704;2023-01-30T00:42:12;1.90;99.90
13742;DHT22;8461;52.356;10.704;2023-01-30T00:45:10;2.00;99.90
13742;DHT22;8461;52.356;10.704;2023-01-30T00:47:55;2.00;99.90
13742;DHT22;8461;52.356;10.704;2023-01-30T00:50:20;2.10;99.90
13742;DHT22;8461;52.356;10.704;2023-01-30T00:52:46;2.20;99.90
13742;DHT22;8461;52.356;10.704;2023-01-30T00:55:12;2.30;99.90
13742;DHT22;8461;52.356;10.704;2023-01-30T00:57:37;2.40;99.90
13742;DHT22;8461;52.356;10.704;2023-01-30T01:00:03;2.50;99.90
13742;DHT22;8461;52.356;10.704;2023-01-30T01:02:30;2.50;99.90
13742;DHT22;8461;52.356;10.704;2023-01-30T01:04:56;2.60;99.90
13742;DHT22;8461;52.356;10.704;2023-01-30T01:07:21;2.60;99.90
13742;DHT22;8461;52.356;10.704;2023-01-30T01:09:47;2.60;99.90
13742;DHT22;8461;52.356;10.704;2023-01-30T01:12:12;2.60;99.90
13742;DHT22;8461;52.356;10.704;2023-01-30T01:14:38;2.60;99.90
13742;DHT22;8461;52.356;10.704;2023-01-30T01:17:03;2.60;99.90
13742;DHT22;8461;52.356;10.704;2023-01-30T01:19:29;2.60;99.90
13742;DHT22;8461;52.356;10.704;2023-01-30T01:21:54;2.60;99.90
13742;DHT22;8461;52.356;10.704;2023-01-30T01:24:20;2.60;99.90
13742;DHT22;8461;52.356;10.704;2023-01-30T01:26:45;2.60;99.90
13742;DHT22;8461;52.356;10.704;2023-01-30T01:29:13;2.60;99.90
13742;DHT22;8461;52.356;10.704;2023-01-30T01:31:39;2.60;99.90
13742;DHT22;8461;52.356;10.704;2023-01-30T01:34:04;2.60;99.90
13742;DHT22;8461;52.356;10.704;2023-01-30T01:36:30;2.70;99.90
13742;DHT22;8461;52.356;10.704;2023-01-30T01:38:58;2.60;99.90
13742;DHT22;8461;52.356;10.704;2023-01-30T01:41:24;2.60;99.90
13742;DHT22;8461;52.356;10.704;2023-01-30T01:47:15;2.60;99.90
13742;DHT22;8461;52.356;10.704;2023-01-30T01:49:28;2.50;99.90
13742;DHT22;8461;52.356;10.704;2023-01-30T01:52:04;2.40;99.90
13742;DHT22;8461;52.356;10.704;2023-01-30T01:57:05;2.40;99.90
13742;DHT22;8461;52.356;10.704;2023-01-30T01:59:38;2.40;99.90
13742;DHT22;8461;52.356;10.704;2023-01-30T02:02:09;2.40;99.90
13742;DHT22;8461;52.356;10.704;2023-01-30T02:04:39;2.30;99.90
13742;DHT22;8461;52.356;10.704;2023-01-30T02:07:25;2.30;99.90
13742;DHT22;8461;52.356;10.704;2023-01-30T02:09:52;2.30;99.90
13742;DHT22;8461;52.356;10.704;2023-01-30T02:12:18;2.30;99.90
13742;DHT22;8461;52.356;10.704;2023-01-30T02:14:44;2.30;99.90
13742;DHT22;8461;52.356;10.704;2023-01-30T02:17:09;2.20;99.90
13742;DHT22;8461;52.356;10.704;2023-01-30T02:20:10;2.30;99.90
13742;DHT22;8461;52.356;10.704;2023-01-30T02:42:07;2.50;99.90
13742;DHT22;8461;52.356;10.704;2023-01-30T02:47:15;2.50;99.90
13742;DHT22;8461;52.356;10.704;2023-01-30T02:49:56;2.60;99.90
13742;DHT22;8461;52.356;10.704;2023-01-30T02:52:23;2.50;99.90
13742;DHT22;8461;52.356;10.704;2023-01-30T02:54:49;2.60;99.90
13742;DHT22;8461;52.356;10.704;2023-01-30T02:57:19;2.60;99.90
13742;DHT22;8461;52.356;10.704;2023-01-30T02:59:48;2.70;99.90
13742;DHT22;8461;52.356;10.704;2023-01-30T03:02:48;2.70;99.90
13742;DHT22;8461;52.356;10.704;2023-01-30T03:08:11;2.70;99.90
13742;DHT22;8461;52.356;10.704;2023-01-30T03:10:48;2.70;99.90
13742;DHT22;8461;52.356;10.704;2023-01-30T03:13:42;2.70;99.90
13742;DHT22;8461;52.356;10.704;2023-01-30T03:18:43;2.80;99.90
13742;DHT22;8461;52.356;10.704;2023-01-30T03:21:10;2.80;99.90
13742;DHT22;8461;52.356;10.704;2023-01-30T03:23:35;2.80;99.90
13742;DHT22;8461;52.356;10.704;2023-01-30T03:26:04;2.80;99.90
13742;DHT22;8461;52.356;10.704;2023-01-30T03:28:31;2.80;99.90
13742;DHT22;8461;52.356;10.704;2023-01-30T03:30:56;2.90;99.90
13742;DHT22;8461;52.356;10.704;2023-01-30T03:33:22;3.00;99.90
13742;DHT22;8461;52.356;10.704;2023-01-30T03:35:49;3.10;99.90
13742;DHT22;8461;52.356;10.704;2023-01-30T03:38:15;3.10;99.90
13742;DHT22;8461;52.356;10.704;2023-01-30T03:40:42;3.20;99.90
13742;DHT22;8461;52.356;10.704;2023-01-30T03:43:08;3.20;99.90
13742;DHT22;8461;52.356;10.704;2023-01-30T03:45:33;3.20;99.90
13742;DHT22;8461;52.356;10.704;2023-01-30T03:47:59;3.30;99.90
13742;DHT22;8461;52.356;10.704;2023-01-30T03:50:25;3.30;99.90
13742;DHT22;8461;52.356;10.704;2023-01-30T03:52:50;3.30;99.90
13742;DHT22;8461;52.356;10.704;2023-01-30T03:55:16;3.40;99.90
13742;DHT22;8461;52.356;10.704;2023-01-30T03:57:41;3.50;99.90
13742;DHT22;8461;52.356;10.704;2023-01-30T04:00:07;3.60;99.90
13742;DHT22;8461;52.356;10.704;2023-01-30T04:02:33;3.60;99.90
13742;DHT22;8461;52.356;10.704;2023-01-30T04:04:58;3.60;99.90
13742;DHT22;8461;52.356;10.704;2023-01-30T04:07:24;3.70;99.90
13742;DHT22;8461;52.356;10.704;2023-01-30T04:09:50;3.60;99.90
13742;DHT22;8461;52.356;10.704;2023-01-30T04:12:15;3.70;99.90
13742;DHT22;8461;52.356;10.704;2023-01-30T04:14:40;3.70;99.90
13742;DHT22;8461;52.356;10.704;2023-01-30T04:17:06;3.70;99.90
13742;DHT22;8461;52.356;10.704;2023-01-30T04:19:32;3.70;99.90
13742;DHT22;8461;52.356;10.704;2023-01-30T04:21:57;3.70;99.90
13742;DHT22;8461;52.356;10.704;2023-01-30T04:24:23;3.70;99.90
13742;DHT22;8461;52.356;10.704;2023-01-30T04:26:48;3.70;99.90
13742;DHT22;8461;52.356;10.704;2023-01-30T04:29:14;3.70;99.90
13742;DHT22;8461;52.356;10.704;2023-01-30T04:31:39;3.70;99.90
13742;DHT22;8461;52.356;10.704;2023-01-30T04:34:05;3.70;99.90
13742;DHT22;8461;52.356;10.704;2023-01-30T04:36:31;3.80;99.90
13742;DHT22;8461;52.356;10.704;2023-01-30T04:38:56;3.80;99.90
13742;DHT22;8461;52.356;10.704;2023-01-30T04:41:22;3.80;99.90
13742;DHT22;8461;52.356;10.704;2023-01-30T04:43:48;3.80;99.90
13742;DHT22;8461;52.356;10.704;2023-01-30T04:46:13;3.80;99.90
13742;DHT22;8461;52.356;10.704;2023-01-30T04:48:39;3.80;99.90
13742;DHT22;8461;52.356;10.704;2023-01-30T04:51:04;3.80;99.90
13742;DHT22;8461;52.356;10.704;2023-01-30T04:53:30;3.80;99.90
13742;DHT22;8461;52.356;10.704;2023-01-30T04:55:55;3.80;99.90
13742;DHT22;8461;52.356;10.704;2023-01-30T04:58:21;3.80;99.90
13742;DHT22;8461;52.356;10.704;2023-01-30T05:00:47;3.80;99.90
13742;DHT22;8461;52.356;10.704;2023-01-30T05:03:14;3.80;99.90
13742;DHT22;8461;52.356;10.704;2023-01-30T05:05:39;3.80;99.90
13742;DHT22;8461;52.356;10.704;2023-01-30T05:08:05;3.80;99.90
13742;DHT22;8461;52.356;10.704;2023-01-30T05:10:30;3.80;99.90
13742;DHT22;8461;52.356;10.704;2023-01-30T05:13:00;3.80;99.90
13742;DHT22;8461;52.356;10.704;2023-01-30T05:15:26;3.80;99.90
13742;DHT22;8461;52.356;10.704;2023-01-30T05:17:51;3.80;99.90
13742;DHT22;8461;52.356;10.704;2023-01-30T05:20:17;3.90;99.90
13742;DHT22;8461;52.356;10.704;2023-01-30T05:22:42;3.90;99.90
13742;DHT22;8461;52.356;10.704;2023-01-30T05:25:08;3.90;99.90
13742;DHT22;8461;52.356;10.704;2023-01-30T05:27:34;3.90;99.90
13742;DHT22;8461;52.356;10.704;2023-01-30T05:29:59;3.90;99.90
13742;DHT22;8461;52.356;10.704;2023-01-30T05:32:25;3.90;99.90
13742;DHT22;8461;52.356;10.704;2023-01-30T05:34:51;3.90;99.90
13742;DHT22;8461;52.356;10.704;2023-01-30T05:37:17;3.90;99.90
13742;DHT22;8461;52.356;10.704;2023-01-30T05:39:42;3.90;99.90
13742;DHT22;8461;52.356;10.704;2023-01-30T05:42:08;4.00;99.90
13742;DHT22;8461;52.356;10.704;2023-01-30T05:44:33;4.00;99.90
13742;DHT22;8461;52.356;10.704;2023-01-30T05:46:59;4.00;99.90
13742;DHT22;8461;52.356;10.704;2023-01-30T05:49:24;4.00;99.90
13742;DHT22;8461;52.356;10.704;2023-01-30T05:51:50;4.10;99.90
13742;DHT22;8461;52.356;10.704;2023-01-30T05:54:15;4.10;99.90
13742;DHT22;8461;52.356;10.704;2023-01-30T05:56:41;4.10;99.90
13742;DHT22;8461;52.356;10.704;2023-01-30T05:59:08;4.10;99.90
13742;DHT22;8461;52.356;10.704;2023-01-30T06:01:35;4.20;99.90
13742;DHT22;8461;52.356;10.704;2023-01-30T06:04:00;4.20;99.90
13742;DHT22;8461;52.356;10.704;2023-01-30T06:06:27;4.20;99.90
13742;DHT22;8461;52.356;10.704;2023-01-30T06:08:54;4.20;99.90
13742;DHT22;8461;52.356;10.704;2023-01-30T06:11:20;4.20;99.90
13742;DHT22;8461;52.356;10.704;2023-01-30T06:13:46;4.30;99.90
13742;DHT22;8461;52.356;10.704;2023-01-30T06:16:13;4.30;99.90
13742;DHT22;8461;52.356;10.704;2023-01-30T06:18:39;4.30;99.90
13742;DHT22;8461;52.356;10.704;2023-01-30T06:21:05;4.30;99.90
13742;DHT22;8461;52.356;10.704;2023-01-30T06:23:31;4.40;99.90
13742;DHT22;8461;52.356;10.704;2023-01-30T06:25:57;4.30;99.90
13742;DHT22;8461;52.356;10.704;2023-01-30T06:28:24;4.40;99.90
13742;DHT22;8461;52.356;10.704;2023-01-30T06:30:50;4.40;99.90
13742;DHT22;8461;52.356;10.704;2023-01-30T06:33:16;4.40;99.90
13742;DHT22;8461;52.356;10.704;2023-01-30T06:35:42;4.50;99.90
13742;DHT22;8461;52.356;10.704;2023-01-30T06:38:08;4.50;99.90
13742;DHT22;8461;52.356;10.704;2023-01-30T06:40:36;4.50;99.90
13742;DHT22;8461;52.356;10.704;2023-01-30T06:43:02;4.50;99.90
13742;DHT22;8461;52.356;10.704;2023-01-30T06:45:27;4.60;99.90
13742;DHT22;8461;52.356;10.704;2023-01-30T06:47:54;4.60;99.90
13742;DHT22;8461;52.356;10.704;2023-01-30T06:50:24;4.60;99.90
13742;DHT22;8461;52.356;10.704;2023-01-30T06:52:51;4.60;99.90
13742;DHT22;8461;52.356;10.704;2023-01-30T06:55:20;4.60;99.90
13742;DHT22;8461;52.356;10.704;2023-01-30T06:57:46;4.80;99.90
13742;DHT22;8461;52.356;10.704;2023-01-30T07:00:14;4.70;99.90
13742;DHT22;8461;52.356;10.704;2023-01-30T07:02:41;4.60;99.90
13742;DHT22;8461;52.356;10.704;2023-01-30T07:05:08;4.70;99.90
13742;DHT22;8461;52.356;10.704;2023-01-30T07:07:34;4.70;99.90
13742;DHT22;8461;52.356;10.704;2023-01-30T07:10:00;4.70;99.90
13742;DHT22;8461;52.356;10.704;2023-01-30T07:12:26;4.70;99.90
13742;DHT22;8461;52.356;10.704;2023-01-30T07:14:52;4.70;99.90
13742;DHT22;8461;52.356;10.704;2023-01-30T07:17:18;4.70;99.90
13742;DHT22;8461;52.356;10.704;2023-01-30T07:19:44;4.80;99.90
13742;DHT22;8461;52.356;10.704;2023-01-30T07:22:10;4.80;99.90
13742;DHT22;8461;52.356;10.704;2023-01-30T07:24:36;4.80;99.90
13742;DHT22;8461;52.356;10.704;2023-01-30T07:27:03;4.80;99.90
13742;DHT22;8461;52.356;10.704;2023-01-30T07:29:28;4.80;99.90
13742;DHT22;8461;52.356;10.704;2023-01-30T07:31:54;4.80;99.90
13742;DHT22;8461;52.356;10.704;2023-01-30T07:34:19;4.90;99.90
13742;DHT22;8461;52.356;10.704;2023-01-30T07:36:45;4.90;99.90
13742;DHT22;8461;52.356;10.704;2023-01-30T07:39:10;4.80;99.90
13742;DHT22;8461;52.356;10.704;2023-01-30T07:41:36;4.80;99.90
13742;DHT22;8461;52.356;10.704;2023-01-30T07:44:01;5.00;99.90
13742;DHT22;8461;52.356;10.704;2023-01-30T07:46:27;5.00;99.90
13742;DHT22;8461;52.356;10.704;2023-01-30T07:49:03;4.90;99.90
13742;DHT22;8461;52.356;10.704;2023-01-30T07:51:28;5.00;99.90
13742;DHT22;8461;52.356;10.704;2023-01-30T07:53:54;5.00;99.90
13742;DHT22;8461;52.356;10.704;2023-01-30T07:56:20;5.10;99.90
13742;DHT22;8461;52.356;10.704;2023-01-30T07:58:52;5.00;99.90
13742;DHT22;8461;52.356;10.704;2023-01-30T08:01:18;5.10;99.90
13742;DHT22;8461;52.356;10.704;2023-01-30T08:03:44;5.10;99.90
13742;DHT22;8461;52.356;10.704;2023-01-30T08:06:11;5.10;99.90
13742;DHT22;8461;52.356;10.704;2023-01-30T08:08:38;5.30;99.90
13742;DHT22;8461;52.356;10.704;2023-01-30T08:11:04;5.20;99.90
13742;DHT22;8461;52.356;10.704;2023-01-30T08:13:29;5.30;99.90
13742;DHT22;8461;52.356;10.704;2023-01-30T08:15:58;5.20;99.90
13742;DHT22;8461;52.356;10.704;2023-01-30T08:18:24;5.20;99.90
13742;DHT22;8461;52.356;10.704;2023-01-30T08:20:49;5.20;99.90
13742;DHT22;8461;52.356;10.704;2023-01-30T08:23:15;5.20;99.90
13742;DHT22;8461;52.356;10.704;2023-01-30T08:25:42;5.20;99.90
13742;DHT22;8461;52.356;10.704;2023-01-30T08:28:07;5.30;99.90
13742;DHT22;8461;52.356;10.704;2023-01-30T08:30:33;5.30;99.90
13742;DHT22;8461;52.356;10.704;2023-01-30T08:32:58;5.40;99.90
13742;DHT22;8461;52.356;10.704;2023-01-30T08:35:24;5.40;99.90
13742;DHT22;8461;52.356;10.704;2023-01-30T08:37:49;5.30;99.90
13742;DHT22;8461;52.356;10.704;2023-01-30T08:40:15;5.40;99.90
13742;DHT22;8461;52.356;10.704;2023-01-30T08:42:43;5.40;99.90
13742;DHT22;8461;52.356;10.704;2023-01-30T08:45:10;5.30;99.90
13742;DHT22;8461;52.356;10.704;2023-01-30T08:47:35;5.30;99.90
13742;DHT22;8461;52.356;10.704;2023-01-30T08:50:01;5.30;99.90
13742;DHT22;8461;52.356;10.704;2023-01-30T08:52:27;5.30;99.90
13742;DHT22;8461;52.356;10.704;2023-01-30T08:54:52;5.30;99.90
13742;DHT22;8461;52.356;10.704;2023-01-30T08:57:18;5.30;99.90
13742;DHT22;8461;52.356;10.704;2023-01-30T08:59:44;5.30;99.90
13742;DHT22;8461;52.356;10.704;2023-01-30T09:02:11;5.30;99.90
13742;DHT22;8461;52.356;10.704;2023-01-30T09:04:36;5.40;99.90
13742;DHT22;8461;52.356;10.704;2023-01-30T09:07:02;5.40;99.90
13742;DHT22;8461;52.356;10.704;2023-01-30T09:09:28;5.40;99.90
13742;DHT22;8461;52.356;10.704;2023-01-30T09:11:54;5.40;99.90
13742;DHT22;8461;52.356;10.704;2023-01-30T09:14:19;5.50;99.90
13742;DHT22;8461;52.356;10.704;2023-01-30T09:16:46;5.50;99.90
13742;DHT22;8461;52.356;10.704;2023-01-30T09:19:12;5.50;99.90
13742;DHT22;8461;52.356;10.704;2023-01-30T09:21:38;5.50;99.90
13742;DHT22;8461;52.356;10.704;2023-01-30T09:24:04;5.50;99.90
13742;DHT22;8461;52.356;10.704;2023-01-30T09:26:30;5.50;99.90
13742;DHT22;8461;52.356;10.704;2023-01-30T09:28:56;5.60;99.90
13742;DHT22;8461;52.356;10.704;2023-01-30T09:31:21;5.70;99.90
13742;DHT22;8461;52.356;10.704;2023-01-30T09:33:47;5.70;99.90
13742;DHT22;8461;52.356;10.704;2023-01-30T09:36:13;5.70;99.90
13742;DHT22;8461;52.356;10.704;2023-01-30T09:38:38;5.80;99.90
13742;DHT22;8461;52.356;10.704;2023-01-30T09:44:09;5.90;99.90
13742;DHT22;8461;52.356;10.704;2023-01-30T09:52:37;5.90;99.90
13742;DHT22;8461;52.356;10.704;2023-01-30T09:55:26;5.90;99.90
13742;DHT22;8461;52.356;10.704;2023-01-30T09:57:53;6.00;99.90
13742;DHT22;8461;52.356;10.704;2023-01-30T10:00:38;5.90;99.90
13742;DHT22;8461;52.356;10.704;2023-01-30T10:03:16;5.90;99.90
13742;DHT22;8461;52.356;10.704;2023-01-30T10:05:50;6.00;99.90
13742;DHT22;8461;52.356;10.704;2023-01-30T10:08:49;6.10;99.90
13742;DHT22;8461;52.356;10.704;2023-01-30T10:26:47;5.90;99.90
13742;DHT22;8461;52.356;10.704;2023-01-30T10:29:20;5.90;99.90
13742;DHT22;8461;52.356;10.704;2023-01-30T10:31:51;6.00;99.90
13742;DHT22;8461;52.356;10.704;2023-01-30T10:34:28;5.90;99.90
13742;DHT22;8461;52.356;10.704;2023-01-30T10:37:14;6.00;99.90
13742;DHT22;8461;52.356;10.704;2023-01-30T10:39:49;6.10;99.90
13742;DHT22;8461;52.356;10.704;2023-01-30T10:42:22;6.10;99.90
13742;DHT22;8461;52.356;10.704;2023-01-30T10:45:01;6.10;99.90
13742;DHT22;8461;52.356;10.704;2023-01-30T10:47:46;6.00;99.90
13742;DHT22;8461;52.356;10.704;2023-01-30T10:50:17;6.00;99.90
13742;DHT22;8461;52.356;10.704;2023-01-30T10:55:41;6.20;99.90
13742;DHT22;8461;52.356;10.704;2023-01-30T10:58:19;6.30;99.90
13742;DHT22;8461;52.356;10.704;2023-01-30T11:01:13;6.30;99.90
13742;DHT22;8461;52.356;10.704;2023-01-30T11:03:52;6.30;99.90
13742;DHT22;8461;52.356;10.704;2023-01-30T11:06:25;6.30;99.90
13742;DHT22;8461;52.356;10.704;2023-01-30T11:08:54;6.30;99.90
13742;DHT22;8461;52.356;10.704;2023-01-30T11:11:47;6.20;99.90
13742;DHT22;8461;52.356;10.704;2023-01-30T11:14:13;6.10;99.90
13742;DHT22;8461;52.356;10.704;2023-01-30T11:16:57;6.00;99.90
13742;DHT22;8461;52.356;10.704;2023-01-30T11:19:30;5.90;99.90
13742;DHT22;8461;52.356;10.704;2023-01-30T11:22:00;5.90;99.90
13742;DHT22;8461;52.356;10.704;2023-01-30T11:24:38;5.90;99.90
13742;DHT22;8461;52.356;10.704;2023-01-30T11:27:26;5.90;99.90
13742;DHT22;8461;52.356;10.704;2023-01-30T11:32:30;5.50;99.90
13742;DHT22;8461;52.356;10.704;2023-01-30T11:37:44;5.30;99.90
13742;DHT22;8461;52.356;10.704;2023-01-30T11:42:44;4.80;99.90
13742;DHT22;8461;52.356;10.704;2023-01-30T11:45:11;4.80;99.90
13742;DHT22;8461;52.356;10.704;2023-01-30T11:47:38;4.80;99.90
13742;DHT22;8461;52.356;10.704;2023-01-30T11:50:16;5.00;99.90
13742;DHT22;8461;52.356;10.704;2023-01-30T11:52:44;5.00;99.90
13742;DHT22;8461;52.356;10.704;2023-01-30T11:55:17;5.00;99.90
13742;DHT22;8461;52.356;10.704;2023-01-30T11:57:55;5.10;99.90
13742;DHT22;8461;52.356;10.704;2023-01-30T12:00:26;5.10;99.90
13742;DHT22;8461;52.356;10.704;2023-01-30T12:02:56;5.00;99.90
13742;DHT22;8461;52.356;10.704;2023-01-30T12:05:36;4.70;99.90
13742;DHT22;8461;52.356;10.704;2023-01-30T12:11:05;4.40;99.90
13742;DHT22;8461;52.356;10.704;2023-01-30T12:13:40;4.30;99.90
13742;DHT22;8461;52.356;10.704;2023-01-30T12:16:20;4.40;99.90
13742;DHT22;8461;52.356;10.704;2023-01-30T12:19:09;4.30;99.90
13742;DHT22;8461;52.356;10.704;2023-01-30T12:22:02;4.30;99.90
13742;DHT22;8461;52.356;10.704;2023-01-30T12:24:35;4.30;99.90
13742;DHT22;8461;52.356;10.704;2023-01-30T12:27:09;4.20;99.90
13742;DHT22;8461;52.356;10.704;2023-01-30T12:32:25;4.00;99.90
13742;DHT22;8461;52.356;10.704;2023-01-30T12:34:51;4.00;99.90
13742;DHT22;8461;52.356;10.704;2023-01-30T12:46:01;4.00;99.90
13742;DHT22;8461;52.356;10.704;2023-01-30T12:52:04;4.20;99.90
13742;DHT22;8461;52.356;10.704;2023-01-30T13:03:22;4.40;99.90
13742;DHT22;8461;52.356;10.704;2023-01-30T13:08:31;4.40;99.90
13742;DHT22;8461;52.356;10.704;2023-01-30T13:13:57;4.40;99.90
13742;DHT22;8461;52.356;10.704;2023-01-30T13:16:39;4.50;99.90
13742;DHT22;8461;52.356;10.704;2023-01-30T13:19:13;4.60;99.90
13742;DHT22;8461;52.356;10.704;2023-01-30T13:21:48;4.70;99.90
13742;DHT22;8461;52.356;10.704;2023-01-30T13:24:21;4.90;99.90
13742;DHT22;8461;52.356;10.704;2023-01-30T13:26:48;5.20;99.90
13742;DHT22;8461;52.356;10.704;2023-01-30T13:29:31;5.30;99.90
13742;DHT22;8461;52.356;10.704;2023-01-30T13:31:59;5.40;99.90
13742;DHT22;8461;52.356;10.704;2023-01-30T13:34:35;5.30;99.90
13742;DHT22;8461;52.356;10.704;2023-01-30T13:37:15;5.20;99.90
13742;DHT22;8461;52.356;10.704;2023-01-30T13:39:46;5.00;99.90
13742;DHT22;8461;52.356;10.704;2023-01-30T13:44:53;4.80;99.90
13742;DHT22;8461;52.356;10.704;2023-01-30T13:47:23;4.70;99.90
13742;DHT22;8461;52.356;10.704;2023-01-30T13:50:11;4.70;99.90
13742;DHT22;8461;52.356;10.704;2023-01-30T13:52:49;4.80;99.90
13742;DHT22;8461;52.356;10.704;2023-01-30T13:55:39;4.70;99.90
13742;DHT22;8461;52.356;10.704;2023-01-30T13:58:25;4.60;99.90
13742;DHT22;8461;52.356;10.704;2023-01-30T14:00:54;4.50;99.90
13742;DHT22;8461;52.356;10.704;2023-01-30T14:03:28;4.40;99.90
13742;DHT22;8461;52.356;10.704;2023-01-30T14:11:48;4.50;99.90
13742;DHT22;8461;52.356;10.704;2023-01-30T14:16:46;4.80;99.90
13742;DHT22;8461;52.356;10.704;2023-01-30T14:19:38;4.80;99.90
13742;DHT22;8461;52.356;10.704;2023-01-30T14:22:24;4.80;99.90
13742;DHT22;8461;52.356;10.704;2023-01-30T14:28:47;4.80;99.90
13742;DHT22;8461;52.356;10.704;2023-01-30T14:30:48;4.80;99.90
13742;DHT22;8461;52.356;10.704;2023-01-30T14:38:27;4.60;99.90
13742;DHT22;8461;52.356;10.704;2023-01-30T14:45:52;4.20;99.90
13742;DHT22;8461;52.356;10.704;2023-01-30T14:53:58;4.10;99.90
13742;DHT22;8461;52.356;10.704;2023-01-30T14:56:44;4.20;99.90
13742;DHT22;8461;52.356;10.704;2023-01-30T15:02:02;4.30;99.90
13742;DHT22;8461;52.356;10.704;2023-01-30T15:13:10;4.40;99.90
13742;DHT22;8461;52.356;10.704;2023-01-30T15:32:33;4.60;99.90
13742;DHT22;8461;52.356;10.704;2023-01-30T15:35:22;4.60;99.90
13742;DHT22;8461;52.356;10.704;2023-01-30T15:37:53;4.50;99.90
13742;DHT22;8461;52.356;10.704;2023-01-30T15:40:27;4.50;99.90
13742;DHT22;8461;52.356;10.704;2023-01-30T15:43:19;4.50;99.90
13742;DHT22;8461;52.356;10.704;2023-01-30T15:51:01;4.50;99.90
13742;DHT22;8461;52.356;10.704;2023-01-30T15:53:38;4.50;99.90
13742;DHT22;8461;52.356;10.704;2023-01-30T15:56:07;4.50;99.90
13742;DHT22;8461;52.356;10.704;2023-01-30T15:58:38;4.50;99.90
13742;DHT22;8461;52.356;10.704;2023-01-30T16:01:05;4.50;99.90
13742;DHT22;8461;52.356;10.704;2023-01-30T16:03:32;4.40;99.90
13742;DHT22;8461;52.356;10.704;2023-01-30T16:06:02;4.40;99.90
13742;DHT22;8461;52.356;10.704;2023-01-30T16:08:29;4.40;99.90
13742;DHT22;8461;52.356;10.704;2023-01-30T16:10:56;4.40;99.90
13742;DHT22;8461;52.356;10.704;2023-01-30T16:13:22;4.30;99.90
13742;DHT22;8461;52.356;10.704;2023-01-30T16:15:59;4.30;99.90
13742;DHT22;8461;52.356;10.704;2023-01-30T16:18:54;4.30;99.90
13742;DHT22;8461;52.356;10.704;2023-01-30T16:21:25;4.40;99.90
13742;DHT22;8461;52.356;10.704;2023-01-30T16:26:23;4.30;99.90
13742;DHT22;8461;52.356;10.704;2023-01-30T16:28:50;4.30;99.90
13742;DHT22;8461;52.356;10.704;2023-01-30T16:31:22;4.40;99.90
13742;DHT22;8461;52.356;10.704;2023-01-30T16:33:50;4.40;99.90
13742;DHT22;8461;52.356;10.704;2023-01-30T16:38:49;4.50;99.90
13742;DHT22;8461;52.356;10.704;2023-01-30T16:41:37;4.50;99.90
13742;DHT22;8461;52.356;10.704;2023-01-30T16:44:22;4.50;99.90
13742;DHT22;8461;52.356;10.704;2023-01-30T16:49:27;4.50;99.90
13742;DHT22;8461;52.356;10.704;2023-01-30T16:52:02;4.50;99.90
13742;DHT22;8461;52.356;10.704;2023-01-30T16:54:29;4.50;99.90
13742;DHT22;8461;52.356;10.704;2023-01-30T16:56:57;4.60;99.90
13742;DHT22;8461;52.356;10.704;2023-01-30T16:59:34;4.60;99.90
13742;DHT22;8461;52.356;10.704;2023-01-30T17:02:01;4.60;99.90
13742;DHT22;8461;52.356;10.704;2023-01-30T17:04:30;4.70;99.90
13742;DHT22;8461;52.356;10.704;2023-01-30T17:06:59;4.70;99.90
13742;DHT22;8461;52.356;10.704;2023-01-30T17:09:44;4.70;99.90
13742;DHT22;8461;52.356;10.704;2023-01-30T17:12:32;4.60;99.90
13742;DHT22;8461;52.356;10.704;2023-01-30T17:17:34;4.60;99.90
13742;DHT22;8461;52.356;10.704;2023-01-30T17:19:59;4.60;99.90
13742;DHT22;8461;52.356;10.704;2023-01-30T17:22:25;4.50;99.90
13742;DHT22;8461;52.356;10.704;2023-01-30T17:24:53;4.60;99.90
13742;DHT22;8461;52.356;10.704;2023-01-30T17:27:24;4.70;99.90
13742;DHT22;8461;52.356;10.704;2023-01-30T17:29:50;4.70;99.90
13742;DHT22;8461;52.356;10.704;2023-01-30T17:32:16;4.70;99.90
13742;DHT22;8461;52.356;10.704;2023-01-30T17:34:41;4.70;99.90
13742;DHT22;8461;52.356;10.704;2023-01-30T17:37:17;4.70;99.90
13742;DHT22;8461;52.356;10.704;2023-01-30T17:39:44;4.70;99.90
13742;DHT22;8461;52.356;10.704;2023-01-30T17:42:11;4.70;99.90
13742;DHT22;8461;52.356;10.704;2023-01-30T17:44:37;4.80;99.90
13742;DHT22;8461;52.356;10.704;2023-01-30T17:47:03;4.90;99.90
13742;DHT22;8461;52.356;10.704;2023-01-30T17:49:28;4.80;99.90
13742;DHT22;8461;52.356;10.704;2023-01-30T17:51:54;4.80;99.90
13742;DHT22;8461;52.356;10.704;2023-01-30T17:54:24;4.80;99.90
13742;DHT22;8461;52.356;10.704;2023-01-30T17:56:55;4.90;99.90
13742;DHT22;8461;52.356;10.704;2023-01-30T17:59:23;4.90;99.90
13742;DHT22;8461;52.356;10.704;2023-01-30T18:01:50;4.80;99.90
13742;DHT22;8461;52.356;10.704;2023-01-30T18:04:16;4.80;99.90
13742;DHT22;8461;52.356;10.704;2023-01-30T18:06:45;4.80;99.90
13742;DHT22;8461;52.356;10.704;2023-01-30T18:09:19;4.80;99.90
13742;DHT22;8461;52.356;10.704;2023-01-30T18:11:46;4.80;99.90
13742;DHT22;8461;52.356;10.704;2023-01-30T18:14:12;4.90;99.90
13742;DHT22;8461;52.356;10.704;2023-01-30T18:16:38;4.90;99.90
13742;DHT22;8461;52.356;10.704;2023-01-30T18:19:06;4.80;99.90
13742;DHT22;8461;52.356;10.704;2023-01-30T18:21:34;4.80;99.90
13742;DHT22;8461;52.356;10.704;2023-01-30T18:24:00;4.80;99.90
13742;DHT22;8461;52.356;10.704;2023-01-30T18:26:26;4.80;99.90
13742;DHT22;8461;52.356;10.704;2023-01-30T18:28:52;4.80;99.90
13742;DHT22;8461;52.356;10.704;2023-01-30T18:31:18;4.70;99.90
13742;DHT22;8461;52.356;10.704;2023-01-30T18:33:46;4.70;99.90
13742;DHT22;8461;52.356;10.704;2023-01-30T18:36:16;4.60;99.90
13742;DHT22;8461;52.356;10.704;2023-01-30T18:38:42;4.60;99.90
13742;DHT22;8461;52.356;10.704;2023-01-30T18:41:18;4.60;99.90
13742;DHT22;8461;52.356;10.704;2023-01-30T18:43:45;4.60;99.90
13742;DHT22;8461;52.356;10.704;2023-01-30T18:46:15;4.50;99.90
13742;DHT22;8461;52.356;10.704;2023-01-30T18:48:41;4.50;99.90
13742;DHT22;8461;52.356;10.704;2023-01-30T18:51:18;4.50;99.90
13742;DHT22;8461;52.356;10.704;2023-01-30T18:53:46;4.50;99.90